Time;durP1;ratioP1;P1;durP2;ratioP2;P2;SDS_P1;SDS_P2;PMS_P1;PMS_P2;Temp;Humidity;BMP_temperature;BMP_pressure;BME280_temperature;BME280_humidity;BME280_pressure;Samples;Min_cycle;Max_cycle;Signal;HPM_P1;HPM_P2
2021/10/11 00:00:08;;;;;;;77.35;53.20;;;;;;;11.73;73.34;100926.56;5016655;28;20524;-64
2021/10/11 00:03:00;;;;;;;;;;;;;;;11.72;73.57;100932.59;5002646;28;20409;-62
2021/10/11 00:05:49;;;;;;;83.38;55.75;;;;;;;11.73;73.54;100933.50;5002731;28;19959;-62
2021/10/11 00:08:33;;;;;;;79.45;53.88;;;;;;;11.74;73.71;100935.25;5017187;28;20048;-62
2021/10/11 00:11:22;;;;;;;84.03;54.45;;;;;;;11.75;73.66;100942.22;5016851;28;20099;-62
2021/10/11 00:14:11;;;;;;;85.38;55.25;;;;;;;11.76;73.66;100932.69;5002486;28;20064;-63
2021/10/11 00:16:55;;;;;;;83.60;54.83;;;;;;;11.77;73.38;100931.84;5002063;28;20180;-62
2021/10/11 00:19:39;;;;;;;82.45;56.00;;;;;;;11.77;73.69;100930.13;5016932;28;20104;-62
2021/10/11 00:22:23;;;;;;;90.18;57.67;;;;;;;11.79;73.52;100935.38;5016707;28;20133;-62
2021/10/11 00:25:10;;;;;;;86.22;56.45;;;;;;;11.79;73.72;100938.84;5002001;28;20056;-62
2021/10/11 00:27:57;;;;;;;88.55;57.22;;;;;;;11.79;73.69;100938.84;5001747;28;20409;-63
2021/10/11 00:30:44;;;;;;;85.72;55.00;;;;;;;11.80;73.75;100939.72;5002321;28;20056;-62
2021/10/11 00:33:28;;;;;;;80.47;55.30;;;;;;;11.80;73.81;100943.19;5016809;28;20136;-62
2021/10/11 00:36:15;;;;;;;83.05;54.13;;;;;;;11.81;74.06;100938.88;5029875;28;20512;-62
2021/10/11 00:39:06;;;;;;;84.43;54.65;;;;;;;11.80;73.99;100940.59;5002068;28;20041;-62
2021/10/11 00:41:52;;;;;;;85.28;54.65;;;;;;;11.81;73.83;100931.97;5001107;28;20088;-63
2021/10/11 00:44:36;;;;;;;84.20;56.80;;;;;;;11.82;73.92;100938.91;5001347;28;20072;-62
2021/10/11 00:47:26;;;;;;;81.53;54.17;;;;;;;11.82;73.71;100928.53;5016212;28;20048;-62
2021/10/11 00:50:13;;;;;;;79.32;53.88;;;;;;;11.81;73.92;100931.97;5015031;28;20504;-63
2021/10/11 00:53:00;;;;;;;76.15;51.45;;;;;;;11.82;73.77;100928.53;5001204;28;20056;-62
2021/10/11 00:55:47;;;;;;;79.35;52.72;;;;;;;11.83;74.07;100927.69;5016157;28;20137;-62
2021/10/11 00:58:37;;;;;;;77.22;51.88;;;;;;;11.83;74.02;100934.63;5001544;28;20137;-62
2021/10/11 01:01:21;;;;;;;81.07;53.17;;;;;;;11.84;74.23;100941.53;5000653;28;20130;-62
2021/10/11 01:04:10;;;;;;;79.57;52.20;;;;;;;11.84;74.30;100947.63;5015473;28;20053;-64
2021/10/11 01:06:54;;;;;;;78.20;52.95;;;;;;;11.86;74.46;100942.47;5001003;28;20053;-63
2021/10/11 01:09:38;;;;;;;80.00;51.65;;;;;;;11.85;74.28;100936.41;5015813;28;20045;-64
2021/10/11 01:12:22;;;;;;;83.47;52.92;;;;;;;11.85;74.20;100941.59;5001462;28;20191;-64
2021/10/11 01:15:09;;;;;;;85.35;51.97;;;;;;;11.87;74.53;100939.91;5014691;28;20121;-64
2021/10/11 01:17:55;;;;;;;78.13;50.78;;;;;;;11.88;74.26;100933.00;5015637;28;20416;-64
2021/10/11 01:20:45;;;;;;;86.32;51.13;;;;;;;11.89;74.38;100937.34;5015624;28;20049;-64
2021/10/11 01:23:32;;;;;;;77.50;51.35;;;;;;;11.88;74.35;100936.47;5001204;28;20053;-64
2021/10/11 01:26:19;;;;;;;73.35;47.67;;;;;;;11.89;74.58;100929.56;5015978;28;20096;-64
2021/10/11 01:29:07;;;;;;;71.18;45.00;;;;;;;11.91;74.76;100934.81;5000785;28;20053;-64
2021/10/11 01:31:54;;;;;;;73.72;47.53;;;;;;;11.91;74.70;100940.00;5001033;28;20089;-64
2021/10/11 01:34:38;;;;;;;66.30;43.90;;;;;;;11.92;74.45;100934.84;5000907;28;20092;-64
2021/10/11 01:37:30;;;;;;;66.70;42.22;;;;;;;11.93;74.65;100938.28;5000632;28;20045;-64
2021/10/11 01:40:20;;;;;;;67.32;41.55;;;;;;;11.93;74.58;100934.00;5000353;28;20470;-63
2021/10/11 01:43:08;;;;;;;58.33;39.42;;;;;;;11.94;74.51;100929.66;5015609;28;20059;-64
2021/10/11 01:45:54;;;;;;;60.67;39.55;;;;;;;11.95;74.77;100936.63;5000836;28;20053;-64
2021/10/11 01:48:41;;;;;;;52.97;36.00;;;;;;;11.97;74.97;100927.16;5015272;28;20049;-64
2021/10/11 01:51:28;;;;;;;56.92;37.35;;;;;;;11.96;74.92;100917.59;5000170;28;20052;-64
2021/10/11 01:54:21;;;;;;;59.53;38.00;;;;;;;11.96;74.80;100920.19;5000403;28;20520;-64
2021/10/11 01:57:05;;;;;;;47.40;32.47;;;;;;;11.96;74.92;100915.88;5000012;28;20425;-64
2021/10/11 01:59:54;;;;;;;52.10;35.47;;;;;;;11.96;74.75;100917.59;5014978;28;20095;-64
2021/10/11 02:02:40;;;;;;;56.95;34.38;;;;;;;11.97;74.66;100921.94;4999376;28;20091;-65
2021/10/11 02:05:31;;;;;;;48.75;29.65;;;;;;;11.97;75.10;100916.75;5000513;28;20052;-64
2021/10/11 02:08:23;;;;;;;43.25;30.02;;;;;;;11.98;75.13;100918.50;5000293;28;20053;-64
2021/10/11 02:11:12;;;;;;;47.35;28.98;;;;;;;11.99;75.06;100912.50;4999862;28;20052;-64
2021/10/11 02:13:59;;;;;;;41.90;29.60;;;;;;;11.98;74.92;100915.91;5014979;28;20513;-64
2021/10/11 02:16:48;;;;;;;39.95;27.30;;;;;;;12.00;75.29;100919.47;4999464;28;20114;-63
2021/10/11 02:19:33;;;;;;;40.13;27.58;;;;;;;11.99;74.79;100913.38;5014882;28;20060;-62
2021/10/11 02:22:19;;;;;;;44.63;28.35;;;;;;;12.00;75.03;100915.13;5014220;28;20045;-63
2021/10/11 02:25:04;;;;;;;39.35;27.52;;;;;;;12.01;75.16;100918.63;5014840;28;20144;-62
2021/10/11 02:27:50;;;;;;;40.50;27.30;;;;;;;12.00;74.96;100907.34;5014416;28;20053;-62
2021/10/11 02:30:34;;;;;;;43.63;25.75;;;;;;;12.01;74.73;100916.03;5014683;28;20069;-62
2021/10/11 02:33:21;;;;;;;;;;;;;;;11.99;74.83;100915.09;5014170;28;20075;-62
2021/10/11 02:36:10;;;;;;;34.47;23.35;;;;;;;11.98;75.21;100913.31;5014606;28;20000;-62
2021/10/11 02:39:00;;;;;;;37.42;24.35;;;;;;;11.99;74.82;100912.50;4999931;28;20045;-63
2021/10/11 02:41:49;;;;;;;34.20;22.90;;;;;;;11.99;75.03;100907.31;5014419;28;20048;-62
2021/10/11 02:44:33;;;;;;;37.85;24.13;;;;;;;12.00;75.26;100899.53;5014470;28;20077;-62
2021/10/11 02:47:20;;;;;;;36.05;23.45;;;;;;;12.00;75.06;100907.34;4999476;28;20065;-62
2021/10/11 02:50:05;;;;;;;33.95;22.88;;;;;;;12.00;75.13;100899.53;4999594;28;20049;-64
2021/10/11 02:52:53;;;;;;;32.75;22.17;;;;;;;12.02;75.40;100912.59;4999610;28;20049;-63
2021/10/11 02:55:42;;;;;;;30.60;20.17;;;;;;;12.02;75.43;100912.59;4999664;28;20088;-64
2021/10/11 02:58:34;;;;;;;33.08;22.77;;;;;;;12.02;75.19;100916.06;4999412;28;20104;-64
2021/10/11 03:01:21;;;;;;;32.95;21.80;;;;;;;12.01;75.39;100908.25;4998774;28;20092;-63
2021/10/11 03:04:08;;;;;;;30.23;21.38;;;;;;;12.02;75.39;100900.47;5012776;28;20607;-64
2021/10/11 03:06:52;;;;;;;28.83;20.85;;;;;;;12.02;75.01;100915.19;5013498;28;20049;-63
2021/10/11 03:09:36;;;;;;;29.05;19.88;;;;;;;12.02;75.26;100917.78;5014315;28;20080;-63
2021/10/11 03:12:22;;;;;;;29.30;21.15;;;;;;;12.02;75.15;100917.78;5013386;28;20069;-64
2021/10/11 03:15:07;;;;;;;28.67;19.40;;;;;;;12.01;75.28;100911.69;4998775;28;20138;-64
2021/10/11 03:17:57;;;;;;;28.90;19.92;;;;;;;12.02;75.34;100913.47;4998917;28;20133;-64
2021/10/11 03:20:46;;;;;;;31.33;19.70;;;;;;;12.03;75.20;100904.81;5013692;28;20053;-64
2021/10/11 03:23:38;;;;;;;26.65;18.38;;;;;;;12.03;75.07;100903.97;4993282;28;21842;-64
2021/10/11 03:26:28;;;;;;;26.85;18.08;;;;;;;12.03;75.60;100910.03;4979729;28;20120;-64
2021/10/11 03:29:17;;;;;;;26.10;17.75;;;;;;;12.04;75.14;100913.50;4979647;28;20457;-64
2021/10/11 03:32:02;;;;;;;30.63;18.27;;;;;;;12.05;75.33;100911.78;4978943;28;20138;-64
2021/10/11 03:34:48;;;;;;;27.70;18.92;;;;;;;12.04;75.26;100916.09;4992833;28;20567;-64
2021/10/11 03:37:38;;;;;;;24.75;18.85;;;;;;;12.03;75.71;100915.22;4979536;28;20132;-64
2021/10/11 03:40:27;;;;;;;24.10;17.42;;;;;;;12.03;75.68;100906.56;4979496;28;20061;-64
2021/10/11 03:43:13;;;;;;;28.75;19.50;;;;;;;12.04;75.56;100905.72;4979206;28;20410;-64
2021/10/11 03:46:05;;;;;;;24.95;18.08;;;;;;;12.04;75.52;100905.72;4993813;28;20598;-64
2021/10/11 03:48:55;;;;;;;25.65;17.58;;;;;;;12.03;75.60;100914.34;4993930;28;20457;-64
2021/10/11 03:51:42;;;;;;;24.73;17.65;;;;;;;12.03;75.63;100922.16;4993420;28;20211;-64
2021/10/11 03:54:26;;;;;;;25.25;18.63;;;;;;;12.03;75.46;100922.16;4979527;28;20406;-64
2021/10/11 03:57:10;;;;;;;25.15;17.95;;;;;;;12.04;75.47;100913.50;4993921;28;20052;-64
2021/10/11 03:59:57;;;;;;;26.48;19.15;;;;;;;12.04;75.40;100921.31;4993876;28;20089;-64
2021/10/11 04:02:43;;;;;;;24.58;17.20;;;;;;;12.03;75.45;100910.03;4993782;28;20104;-64
2021/10/11 04:05:33;;;;;;;30.88;18.77;;;;;;;12.03;75.58;100897.03;4993546;28;20089;-64
2021/10/11 04:08:21;;;;;;;25.98;17.58;;;;;;;12.05;75.83;100903.97;4992805;28;20436;-64
2021/10/11 04:11:21;;;;;;;22.83;16.80;;;;;;;12.03;75.67;100910.03;4978709;28;20097;-64
2021/10/11 04:14:08;;;;;;;30.88;19.63;;;;;;;12.03;75.70;100904.81;4978945;28;20097;-64
2021/10/11 04:16:58;;;;;;;27.92;18.60;;;;;;;12.03;75.62;100910.03;4979285;28;20469;-64
2021/10/11 04:19:42;;;;;;;30.08;19.20;;;;;;;12.05;75.56;100909.19;4979222;28;20069;-64
2021/10/11 04:22:26;;;;;;;29.85;20.25;;;;;;;12.03;75.63;100904.81;4992859;28;20046;-64
2021/10/11 04:25:12;;;;;;;32.13;19.63;;;;;;;12.04;75.77;100903.13;4995860;28;20069;-64
2021/10/11 04:28:00;;;;;;;28.33;18.30;;;;;;;12.03;75.83;100904.81;4997085;28;20049;-64
2021/10/11 04:30:50;;;;;;;29.80;20.88;;;;;;;12.05;75.82;100912.66;4982692;28;20585;-64
2021/10/11 04:33:37;;;;;;;26.55;19.25;;;;;;;12.06;75.75;100918.72;4982421;28;20520;-64
2021/10/11 04:36:29;;;;;;;27.45;19.05;;;;;;;12.06;75.66;100924.81;5009524;28;20170;-64
2021/10/11 04:39:16;;;;;;;32.15;20.75;;;;;;;12.06;75.89;100918.72;4996011;28;20525;-64
2021/10/11 04:42:00;;;;;;;30.52;20.60;;;;;;;12.06;75.71;100922.22;4996957;28;20045;-64
2021/10/11 04:44:47;;;;;;;27.25;18.92;;;;;;;12.06;75.54;100922.22;4997151;28;20045;-64
2021/10/11 04:47:32;;;;;;;29.23;20.20;;;;;;;12.05;75.89;100920.47;4996080;28;20475;-64
2021/10/11 04:50:16;;;;;;;32.17;20.88;;;;;;;12.06;75.88;100909.25;4982434;28;20041;-64
2021/10/11 04:53:07;;;;;;;30.08;19.73;;;;;;;12.07;75.99;100918.75;4996448;28;20109;-64
2021/10/11 04:55:56;;;;;;;33.55;21.42;;;;;;;12.06;75.73;100921.34;4996704;28;20101;-64
2021/10/11 04:58:43;;;;;;;32.35;19.50;;;;;;;12.05;75.91;100920.47;4996429;28;20144;-64
2021/10/11 05:01:27;;;;;;;30.70;20.20;;;;;;;12.06;75.92;100919.63;4996203;28;20073;-64
2021/10/11 05:04:11;;;;;;;24.50;17.30;;;;;;;12.06;75.85;100922.22;4996348;28;20129;-63
2021/10/11 05:06:58;;;;;;;32.75;19.55;;;;;;;12.08;76.21;100932.66;4995329;28;20162;-64
2021/10/11 05:09:47;;;;;;;31.38;19.77;;;;;;;12.07;76.13;100931.75;4981595;28;20053;-64
2021/10/11 05:12:37;;;;;;;30.00;20.90;;;;;;;12.06;75.92;100932.63;4996213;28;20045;-64
2021/10/11 05:15:21;;;;;;;26.77;18.55;;;;;;;12.08;76.10;100932.66;4996259;28;20096;-64
2021/10/11 05:18:08;;;;;;;31.52;18.80;;;;;;;12.07;76.45;100929.16;4996513;28;20061;-65
2021/10/11 05:20:58;;;;;;;28.88;18.23;;;;;;;12.07;76.05;100933.47;4981457;28;20050;-64
2021/10/11 05:23:50;;;;;;;28.85;18.55;;;;;;;12.06;76.14;100937.81;4981505;28;20050;-64
2021/10/11 05:26:34;;;;;;;29.23;18.52;;;;;;;12.06;75.96;100943.00;4995348;28;20053;-64
2021/10/11 05:29:24;;;;;;;29.50;18.33;;;;;;;12.06;76.45;100948.22;4995879;28;20089;-64
2021/10/11 05:32:11;;;;;;;33.90;21.35;;;;;;;12.06;76.06;100953.41;4995585;28;20532;-64
2021/10/11 05:34:58;;;;;;;32.88;19.48;;;;;;;12.06;76.06;100961.19;4995657;28;20177;-64
2021/10/11 05:37:47;;;;;;;35.33;20.05;;;;;;;12.06;76.06;100961.19;5008793;28;20521;-64
2021/10/11 05:40:32;;;;;;;28.33;20.02;;;;;;;12.06;76.06;100962.91;4981567;28;20100;-64
2021/10/11 05:43:15;;;;;;;29.25;17.73;;;;;;;12.07;76.19;100969.84;4995973;28;20076;-64
2021/10/11 05:46:01;;;;;;;27.20;16.92;;;;;;;12.05;76.39;100975.03;5008556;28;20084;-64
2021/10/11 05:48:50;;;;;;;24.13;16.42;;;;;;;12.05;76.09;100975.03;4994643;28;20560;-64
2021/10/11 05:51:40;;;;;;;24.48;15.00;;;;;;;12.04;76.47;100975.88;4995788;28;20100;-64
2021/10/11 05:54:24;;;;;;;20.00;12.75;;;;;;;12.05;76.32;100969.84;4995405;28;20041;-64
2021/10/11 05:57:08;;;;;;;24.33;15.43;;;;;;;12.04;76.55;100968.06;4995236;28;20151;-64
2021/10/11 05:59:55;;;;;;;;;;;;;;;12.02;76.52;100964.56;4996012;28;20044;-64
2021/10/11 06:02:39;;;;;;;19.55;12.90;;;;;;;12.01;76.50;100968.00;5008097;28;19972;-64
2021/10/11 06:05:28;;;;;;;21.85;13.60;;;;;;;12.01;76.54;100960.19;4995422;28;20430;-64
2021/10/11 06:08:17;;;;;;;20.52;12.88;;;;;;;12.00;76.65;100968.84;5008173;28;20096;-64
2021/10/11 06:11:04;;;;;;;17.08;12.60;;;;;;;12.00;76.51;100963.63;5008418;28;20052;-64
2021/10/11 06:13:56;;;;;;;18.35;11.20;;;;;;;12.00;76.04;100961.03;4980379;28;20053;-64
2021/10/11 06:16:41;;;;;;;18.80;10.77;;;;;;;12.00;76.52;100956.69;5008415;28;20065;-64
2021/10/11 06:19:26;;;;;;;16.88;11.02;;;;;;;11.99;76.54;100952.34;4995193;28;20052;-64
2021/10/11 06:22:14;;;;;;;20.10;11.82;;;;;;;11.98;76.13;100948.03;4993824;28;20041;-64
2021/10/11 06:25:03;;;;;;;18.15;10.10;;;;;;;11.98;76.59;100953.22;4994903;28;20053;-64
2021/10/11 06:27:50;;;;;;;18.55;9.38;;;;;;;11.98;76.47;100962.69;4994885;28;20158;-64
2021/10/11 06:30:39;;;;;;;16.25;9.45;;;;;;;11.97;76.45;100964.41;4994898;28;20104;-64
2021/10/11 06:33:25;;;;;;;18.70;9.95;;;;;;;11.96;76.39;100953.97;4994763;28;20053;-64
2021/10/11 06:36:13;;;;;;;17.70;9.15;;;;;;;11.97;76.46;100969.59;4980391;28;20046;-64
2021/10/11 06:39:05;;;;;;;16.85;9.38;;;;;;;11.96;76.50;100972.16;4980147;28;20085;-64
2021/10/11 06:41:49;;;;;;;16.48;9.07;;;;;;;11.94;76.45;100966.94;4979594;28;20092;-64
2021/10/11 06:44:33;;;;;;;15.77;10.13;;;;;;;11.94;76.60;100964.34;4994605;28;20054;-64
2021/10/11 06:47:19;;;;;;;18.17;8.50;;;;;;;11.94;76.37;100972.13;4993685;28;20520;-64
2021/10/11 06:50:04;;;;;;;15.48;9.38;;;;;;;11.93;76.47;100970.38;4994975;28;20065;-64
2021/10/11 06:52:48;;;;;;;19.45;9.20;;;;;;;11.93;76.44;100978.16;4994108;28;20576;-64
2021/10/11 06:55:38;;;;;;;16.58;8.63;;;;;;;11.93;76.31;100993.75;4994650;28;20529;-64
2021/10/11 06:58:22;;;;;;;15.95;8.95;;;;;;;11.92;76.44;100997.19;4994790;28;20517;-64
2021/10/11 07:01:09;;;;;;;17.45;8.60;;;;;;;11.92;76.40;101002.38;4980006;28;20053;-64
2021/10/11 07:04:01;;;;;;;17.45;8.10;;;;;;;11.92;76.94;100998.88;4994479;28;20101;-64
2021/10/11 07:06:51;;;;;;;12.90;8.18;;;;;;;11.91;76.34;101003.22;4994710;28;20130;-64
2021/10/11 07:09:36;;;;;;;17.80;8.43;;;;;;;11.92;76.41;100996.28;4979637;28;20056;-64
2021/10/11 07:12:20;;;;;;;16.23;8.70;;;;;;;11.91;76.32;101004.94;4994358;28;20092;-64
2021/10/11 07:15:07;;;;;;;15.25;8.80;;;;;;;11.91;76.35;101004.94;4994582;28;20054;-64
2021/10/11 07:17:54;;;;;;;13.82;8.65;;;;;;;11.88;76.58;101005.72;4994228;28;20057;-64
2021/10/11 07:20:47;;;;;;;16.30;8.13;;;;;;;11.90;76.92;101022.22;4994329;28;20081;-64
2021/10/11 07:23:38;;;;;;;13.65;8.05;;;;;;;11.91;76.87;101023.13;4979553;28;20045;-64
2021/10/11 07:26:25;;;;;;;15.50;8.98;;;;;;;11.90;76.80;101018.78;4979430;28;20104;-63
2021/10/11 07:29:09;;;;;;;15.50;7.75;;;;;;;11.91;77.11;101013.59;4994013;28;20492;-64
2021/10/11 07:32:01;;;;;;;13.32;7.63;;;;;;;11.92;76.85;101011.88;4994097;28;20049;-64
2021/10/11 07:34:48;;;;;;;16.00;7.38;;;;;;;11.91;76.53;101021.41;4978996;28;20509;-64
2021/10/11 07:37:32;;;;;;;18.95;7.85;;;;;;;11.92;77.06;101006.66;4993817;28;20041;-64
2021/10/11 07:40:17;;;;;;;19.77;7.88;;;;;;;11.92;77.09;101010.16;4979147;28;20045;-64
2021/10/11 07:43:04;;;;;;;17.70;8.57;;;;;;;11.92;76.78;101022.25;4993522;28;20085;-64
2021/10/11 07:45:53;;;;;;;14.43;7.28;;;;;;;11.92;76.76;101037.84;4994127;28;20093;-64
2021/10/11 07:48:37;;;;;;;15.05;8.07;;;;;;;11.92;76.69;101046.53;4993936;28;20054;-64
2021/10/11 07:51:21;;;;;;;16.92;7.43;;;;;;;11.93;76.61;101042.19;4994213;28;20053;-63
2021/10/11 07:54:08;;;;;;;14.55;7.35;;;;;;;11.92;76.71;101036.16;4993714;28;20041;-64
2021/10/11 07:56:54;;;;;;;13.27;7.50;;;;;;;11.93;76.76;101043.09;4979449;28;20096;-64
2021/10/11 07:59:40;;;;;;;19.17;7.18;;;;;;;11.94;76.91;101041.38;4996832;28;20053;-64
2021/10/11 08:02:25;;;;;;;14.38;7.30;;;;;;;11.94;77.05;101043.97;4996517;28;20112;-64
2021/10/11 08:05:14;;;;;;;15.88;6.60;;;;;;;11.94;76.83;101042.25;4997460;28;20081;-64
2021/10/11 08:07:59;;;;;;;15.63;7.05;;;;;;;11.95;76.94;101049.22;4998123;28;20096;-64
2021/10/11 08:10:46;;;;;;;12.20;6.45;;;;;;;11.94;77.00;101044.84;4997355;28;20469;-64
2021/10/11 08:13:30;;;;;;;15.02;7.10;;;;;;;11.97;76.74;101059.63;4996864;28;20053;-64
2021/10/11 08:16:19;;;;;;;11.07;7.20;;;;;;;11.96;76.87;101052.69;4997741;28;20061;-64
2021/10/11 08:19:10;;;;;;;13.60;6.25;;;;;;;11.97;77.02;101049.25;4997553;28;20042;-64
2021/10/11 08:21:57;;;;;;;15.40;6.40;;;;;;;11.98;76.89;101053.59;4997467;28;20073;-64
2021/10/11 08:24:41;;;;;;;9.63;6.22;;;;;;;12.00;76.88;101054.56;4996936;28;20081;-63
2021/10/11 08:27:25;;;;;;;15.70;6.18;;;;;;;11.99;76.74;101053.66;4997072;28;20049;-64
2021/10/11 08:30:09;;;;;;;;;;;;;;;11.99;76.79;101053.66;4997977;28;20144;-64
2021/10/11 08:32:59;;;;;;;10.18;5.53;;;;;;;11.99;76.70;101055.41;5009594;28;20293;-64
2021/10/11 08:35:49;;;;;;;7.63;5.20;;;;;;;12.00;77.05;101054.56;4997039;28;20069;-63
2021/10/11 08:38:33;;;;;;;9.73;5.43;;;;;;;12.02;76.98;101058.94;4982267;28;20054;-64
2021/10/11 08:41:22;;;;;;;12.80;5.20;;;;;;;12.03;76.65;101052.91;4982029;28;20524;-63
2021/10/11 08:44:10;;;;;;;11.40;5.15;;;;;;;12.03;76.75;101060.72;4997314;28;20576;-64
2021/10/11 08:46:59;;;;;;;15.00;6.10;;;;;;;12.02;76.94;101061.53;4982149;28;20049;-64
2021/10/11 08:49:48;;;;;;;13.27;5.25;;;;;;;12.02;76.67;101058.94;4982298;28;20113;-64
2021/10/11 08:52:32;;;;;;;10.90;5.03;;;;;;;12.03;76.89;101058.13;4982157;28;20056;-63
2021/10/11 08:55:19;;;;;;;6.82;5.10;;;;;;;12.03;76.68;101063.31;4996759;28;20061;-63
2021/10/11 08:58:08;;;;;;;14.05;4.65;;;;;;;12.05;76.95;101067.66;4982250;28;20049;-63
2021/10/11 09:01:05;;;;;;;11.52;5.68;;;;;;;12.05;76.76;101078.97;4995982;28;20402;-63
2021/10/11 09:03:52;;;;;;;13.15;4.90;;;;;;;12.04;77.21;101074.59;5009164;28;20104;-63
2021/10/11 09:06:47;;;;;;;8.70;4.63;;;;;;;12.05;76.70;101078.06;5009485;28;20137;-63
2021/10/11 09:09:46;;;;;;;12.70;5.40;;;;;;;12.06;76.76;101082.41;4981316;28;20092;-63
2021/10/11 09:12:33;;;;;;;16.70;5.93;;;;;;;12.05;77.01;101081.56;4996420;28;20061;-63
2021/10/11 09:15:18;;;;;;;9.65;4.50;;;;;;;12.06;76.67;101074.63;4981998;28;20076;-63
2021/10/11 09:18:05;;;;;;;10.77;5.07;;;;;;;12.05;76.60;101078.97;4996114;28;20057;-63
2021/10/11 09:20:49;;;;;;;8.30;4.45;;;;;;;12.05;76.88;101070.25;4995078;28;20053;-63
2021/10/11 09:23:38;;;;;;;9.52;4.47;;;;;;;12.05;76.77;101073.75;4996182;28;20100;-63
2021/10/11 09:26:25;;;;;;;10.63;5.40;;;;;;;12.05;76.67;101068.56;4996394;28;20073;-63
2021/10/11 09:29:10;;;;;;;9.02;4.35;;;;;;;12.05;77.06;101065.97;4996156;28;20101;-63
2021/10/11 09:31:59;;;;;;;;;;;;;;;12.03;76.97;101068.50;4982006;28;20105;-63
2021/10/11 09:34:47;;;;;;;8.45;4.63;;;;;;;12.04;77.04;101066.81;4981617;28;19924;-63
2021/10/11 09:37:36;;;;;;;8.85;4.78;;;;;;;12.04;76.95;101074.59;4995954;28;20516;-63
2021/10/11 09:40:25;;;;;;;10.65;4.72;;;;;;;12.03;76.75;101075.44;4981346;28;20102;-63
2021/10/11 09:43:23;;;;;;;10.50;4.70;;;;;;;12.03;77.06;101070.25;4995339;28;20564;-63
2021/10/11 09:46:12;;;;;;;13.48;5.28;;;;;;;12.05;76.69;101083.25;4995306;28;20073;-63
2021/10/11 09:48:59;;;;;;;13.35;5.10;;;;;;;12.05;76.78;101086.75;4981186;28;20081;-63
2021/10/11 09:51:48;;;;;;;10.63;4.82;;;;;;;12.06;76.60;101085.91;5008695;28;20398;-63
2021/10/11 09:54:42;;;;;;;13.57;5.07;;;;;;;12.05;76.50;101088.44;4981155;28;20057;-63
2021/10/11 09:57:26;;;;;;;9.57;4.65;;;;;;;12.05;77.07;101081.56;4995312;28;20045;-63
2021/10/11 10:00:14;;;;;;;;;;;;;;;12.04;76.92;101085.00;4995831;28;20161;-63
2021/10/11 10:03:02;;;;;;;15.05;4.57;;;;;;;12.03;76.95;101086.69;4975033;28;20049;-63
2021/10/11 10:05:49;;;;;;;11.27;4.30;;;;;;;12.03;76.80;101080.63;5002447;28;20089;-63
2021/10/11 10:08:39;;;;;;;14.75;4.53;;;;;;;12.04;76.70;101087.59;4975803;28;20054;-63
2021/10/11 10:11:31;;;;;;;13.32;5.18;;;;;;;12.03;76.80;101078.03;5002555;28;20057;-63
2021/10/11 10:14:19;;;;;;;11.07;4.10;;;;;;;12.03;76.85;101075.44;4975090;28;20046;-63
2021/10/11 10:17:04;;;;;;;12.35;4.13;;;;;;;12.05;76.70;101075.47;5002352;28;20065;-63
2021/10/11 10:19:50;;;;;;;13.07;4.32;;;;;;;12.05;76.45;101075.47;4975864;28;20054;-63
2021/10/11 10:22:51;;;;;;;6.95;3.65;;;;;;;12.04;76.63;101061.59;4987306;28;20050;-63
2021/10/11 10:25:46;;;;;;;12.15;4.05;;;;;;;12.06;76.68;101069.44;5002103;28;20073;-63
2021/10/11 10:28:41;;;;;;;11.18;4.20;;;;;;;12.05;76.92;101073.75;4975505;28;20074;-64
2021/10/11 10:31:37;;;;;;;10.65;4.45;;;;;;;12.06;76.56;101077.22;4988161;28;20054;-63
2021/10/11 10:34:30;;;;;;;8.40;4.10;;;;;;;12.06;76.68;101074.63;5002009;28;20526;-63
2021/10/11 10:37:20;;;;;;;9.80;4.05;;;;;;;12.07;76.59;101066.84;5001957;28;20525;-63
2021/10/11 10:40:10;;;;;;;12.60;3.97;;;;;;;12.07;76.52;101069.47;5002332;28;20097;-61
2021/10/11 10:43:09;;;;;;;13.77;3.97;;;;;;;12.07;76.52;101066.84;4975107;28;20517;-62
2021/10/11 10:46:06;;;;;;;8.40;3.65;;;;;;;12.09;76.95;101060.00;4974406;28;20513;-62
2021/10/11 10:48:54;;;;;;;8.55;3.72;;;;;;;12.10;76.45;101064.34;5001626;28;20057;-62
2021/10/11 10:51:42;;;;;;;12.07;4.00;;;;;;;12.12;76.38;101067.00;5002117;28;20525;-62
2021/10/11 10:54:41;;;;;;;13.63;4.05;;;;;;;12.13;76.58;101069.63;4974498;28;20194;-63
2021/10/11 10:57:30;;;;;;;9.27;3.90;;;;;;;12.13;76.68;101081.75;4974378;28;20546;-62
2021/10/11 11:00:17;;;;;;;6.53;3.13;;;;;;;12.13;76.90;101073.97;5002001;28;20074;-63
2021/10/11 11:03:01;;;;;;;7.85;3.20;;;;;;;12.14;76.22;101081.78;4989734;28;20402;-63
2021/10/11 11:05:55;;;;;;;12.85;3.60;;;;;;;12.15;76.44;101077.44;4994406;28;20054;-63
2021/10/11 11:08:45;;;;;;;8.13;4.28;;;;;;;12.14;76.61;101084.38;5007181;28;20073;-63
2021/10/11 11:11:32;;;;;;;10.05;3.50;;;;;;;12.16;76.79;101092.22;4994624;28;20077;-62
2021/10/11 11:14:23;;;;;;;12.20;3.95;;;;;;;12.13;76.63;101077.41;4993142;28;20161;-63
2021/10/11 11:17:14;;;;;;;10.57;3.47;;;;;;;12.15;76.40;101085.25;4993443;28;20100;-64
2021/10/11 11:20:15;;;;;;;7.88;3.20;;;;;;;12.14;76.35;101079.19;4994513;28;20413;-64
2021/10/11 11:23:06;;;;;;;8.68;4.00;;;;;;;12.16;76.33;101074.00;4979671;28;20097;-64
2021/10/11 11:25:55;;;;;;;9.52;3.42;;;;;;;12.15;76.64;101072.25;4979877;28;20057;-63
2021/10/11 11:28:43;;;;;;;11.38;3.67;;;;;;;12.15;76.34;101074.84;4979936;28;20124;-64
2021/10/11 11:31:32;;;;;;;10.38;3.53;;;;;;;12.14;76.58;101074.00;4994025;28;20134;-64
2021/10/11 11:34:21;;;;;;;6.70;3.40;;;;;;;12.14;76.28;101071.38;4979388;28;20041;-64
2021/10/11 11:37:13;;;;;;;7.38;3.10;;;;;;;12.15;76.14;101069.66;4979592;28;20561;-64
2021/10/11 11:40:08;;;;;;;9.30;2.75;;;;;;;12.15;76.19;101064.47;4979396;28;20097;-64
2021/10/11 11:42:55;;;;;;;8.65;2.95;;;;;;;12.15;76.47;101067.94;4979377;28;20057;-64
2021/10/11 11:45:46;;;;;;;7.53;3.22;;;;;;;12.16;76.57;101058.41;4993489;28;20422;-62
2021/10/11 11:48:33;;;;;;;9.60;3.03;;;;;;;12.16;76.33;101056.72;4979456;28;20069;-62
2021/10/11 11:51:19;;;;;;;6.95;2.83;;;;;;;12.19;76.32;101058.50;4979173;28;20484;-63
2021/10/11 11:54:03;;;;;;;6.45;2.90;;;;;;;12.20;76.35;101055.06;4979413;28;20085;-62
2021/10/11 11:56:56;;;;;;;11.07;2.72;;;;;;;12.21;76.45;101055.97;4993602;28;20528;-62
2021/10/11 11:59:43;;;;;;;5.30;2.42;;;;;;;12.22;76.38;101048.19;4979013;28;20057;-62
2021/10/11 12:02:34;;;;;;;7.70;2.78;;;;;;;12.22;75.97;101045.59;5000745;28;20166;-62
2021/10/11 12:05:21;;;;;;;6.82;3.35;;;;;;;12.24;76.13;101043.03;5001153;28;20395;-62
2021/10/11 12:08:13;;;;;;;8.40;3.58;;;;;;;12.24;75.92;101037.81;4986598;28;20100;-62
2021/10/11 12:11:07;;;;;;;7.18;3.20;;;;;;;12.26;76.28;101028.34;5001382;28;20054;-62
2021/10/11 12:14:02;;;;;;;8.15;3.45;;;;;;;12.26;76.43;101026.66;5000833;28;20082;-62
2021/10/11 12:16:46;;;;;;;7.95;3.10;;;;;;;12.28;76.07;101027.56;4973818;28;20097;-62
2021/10/11 12:19:37;;;;;;;10.05;3.47;;;;;;;12.28;76.09;101034.47;4987332;28;20117;-62
2021/10/11 12:22:27;;;;;;;8.38;3.20;;;;;;;12.28;76.06;101026.69;5001177;28;20046;-62
2021/10/11 12:25:11;;;;;;;7.45;2.95;;;;;;;12.31;76.29;101031.97;5001120;28;20462;-63
2021/10/11 12:28:07;;;;;;;5.95;2.95;;;;;;;12.30;76.22;101030.19;4973315;28;20413;-63
2021/10/11 12:31:05;;;;;;;7.28;2.63;;;;;;;12.30;76.19;101032.78;4973471;28;20113;-62
2021/10/11 12:34:04;;;;;;;6.75;3.00;;;;;;;12.32;75.83;101031.97;4974047;28;20134;-62
2021/10/11 12:36:57;;;;;;;9.30;4.03;;;;;;;12.33;76.23;101022.47;4973898;28;20707;-62
2021/10/11 12:39:43;;;;;;;8.35;3.13;;;;;;;12.36;76.37;101022.56;4973807;28;20097;-62
2021/10/11 12:42:27;;;;;;;8.13;3.28;;;;;;;12.36;76.17;101008.66;4974015;28;20046;-62
2021/10/11 12:45:13;;;;;;;8.23;3.22;;;;;;;12.35;75.95;101005.19;4973737;28;20045;-64
2021/10/11 12:48:05;;;;;;;7.93;3.42;;;;;;;12.36;75.85;101006.97;5004382;28;20138;-64
2021/10/11 12:50:54;;;;;;;10.13;2.85;;;;;;;12.37;76.07;101007.81;4977293;28;20536;-63